sensor_id;sensor_type;location;lat;lon;timestamp;pressure;altitude;pressure_sealevel;temperature;humidity
49216;BME280;45943;53.148;8.204;2024-03-06T00:02:06;102034.69;;;8.40;100.00
49216;BME280;45943;53.148;8.204;2024-03-06T00:04:33;102032.38;;;8.15;100.00
49216;BME280;45943;53.148;8.204;2024-03-06T00:06:59;102027.09;;;8.14;100.00
49216;BME280;45943;53.148;8.204;2024-03-06T00:09:26;102032.53;;;8.12;100.00
49216;BME280;45943;53.148;8.204;2024-03-06T00:11:55;102037.25;;;8.24;100.00
49216;BME280;45943;53.148;8.204;2024-03-06T00:14:22;102031.50;;;8.15;100.00
49216;BME280;45943;53.148;8.204;2024-03-06T00:16:48;102040.56;;;8.12;100.00
49216;BME280;45943;53.148;8.204;2024-03-06T00:19:18;102040.31;;;8.34;100.00
49216;BME280;45943;53.148;8.204;2024-03-06T00:21:44;102050.56;;;8.26;100.00
49216;BME280;45943;53.148;8.204;2024-03-06T00:24:13;102041.25;;;8.33;100.00
49216;BME280;45943;53.148;8.204;2024-03-06T00:26:40;102048.31;;;8.34;100.00
49216;BME280;45943;53.148;8.204;2024-03-06T00:29:10;102045.44;;;8.21;100.00
49216;BME280;45943;53.148;8.204;2024-03-06T00:31:37;102055.63;;;8.13;100.00
49216;BME280;45943;53.148;8.204;2024-03-06T00:34:08;102052.84;;;8.16;100.00
49216;BME280;45943;53.148;8.204;2024-03-06T00:36:34;102052.69;;;8.37;100.00
49216;BME280;45943;53.148;8.204;2024-03-06T00:39:00;102058.00;;;8.19;100.00
49216;BME280;45943;53.148;8.204;2024-03-06T00:41:28;102059.28;;;8.29;100.00
49216;BME280;45943;53.148;8.204;2024-03-06T00:43:54;102060.72;;;8.37;100.00
49216;BME280;45943;53.148;8.204;2024-03-06T00:46:21;102067.03;;;8.34;100.00
49216;BME280;45943;53.148;8.204;2024-03-06T00:48:47;102077.19;;;8.27;100.00
49216;BME280;45943;53.148;8.204;2024-03-06T00:51:12;102076.59;;;8.40;100.00
49216;BME280;45943;53.148;8.204;2024-03-06T00:53:38;102078.78;;;8.49;100.00
49216;BME280;45943;53.148;8.204;2024-03-06T00:56:05;102082.03;;;8.55;100.00
49216;BME280;45943;53.148;8.204;2024-03-06T00:58:31;102082.88;;;8.56;100.00
49216;BME280;45943;53.148;8.204;2024-03-06T01:00:57;102086.34;;;8.58;100.00
49216;BME280;45943;53.148;8.204;2024-03-06T01:03:24;102088.47;;;8.51;100.00
49216;BME280;45943;53.148;8.204;2024-03-06T01:05:50;102087.28;;;8.57;100.00
49216;BME280;45943;53.148;8.204;2024-03-06T01:08:19;102095.53;;;8.52;100.00
49216;BME280;45943;53.148;8.204;2024-03-06T01:10:45;102090.19;;;8.52;100.00
49216;BME280;45943;53.148;8.204;2024-03-06T01:13:11;102099.84;;;8.55;100.00
49216;BME280;45943;53.148;8.204;2024-03-06T01:15:37;102099.44;;;8.28;100.00
49216;BME280;45943;53.148;8.204;2024-03-06T01:18:04;102095.47;;;8.37;100.00
49216;BME280;45943;53.148;8.204;2024-03-06T01:20:30;102100.81;;;8.37;100.00
49216;BME280;45943;53.148;8.204;2024-03-06T01:22:56;102092.91;;;8.33;100.00
49216;BME280;45943;53.148;8.204;2024-03-06T01:25:22;102093.00;;;8.32;100.00
49216;BME280;45943;53.148;8.204;2024-03-06T01:27:48;102097.81;;;8.43;100.00
49216;BME280;45943;53.148;8.204;2024-03-06T01:30:14;102097.59;;;8.47;100.00
49216;BME280;45943;53.148;8.204;2024-03-06T01:32:41;102099.41;;;8.47;100.00
49216;BME280;45943;53.148;8.204;2024-03-06T01:35:07;102100.56;;;8.41;100.00
49216;BME280;45943;53.148;8.204;2024-03-06T01:37:33;102093.06;;;8.30;100.00
49216;BME280;45943;53.148;8.204;2024-03-06T01:39:59;102100.44;;;8.25;100.00
49216;BME280;45943;53.148;8.204;2024-03-06T01:42:25;102100.75;;;8.38;100.00
49216;BME280;45943;53.148;8.204;2024-03-06T01:44:51;102099.38;;;8.29;100.00
49216;BME280;45943;53.148;8.204;2024-03-06T01:47:17;102107.13;;;8.34;100.00
49216;BME280;45943;53.148;8.204;2024-03-06T01:49:43;102113.94;;;8.41;100.00
49216;BME280;45943;53.148;8.204;2024-03-06T01:52:09;102108.28;;;8.47;100.00
49216;BME280;45943;53.148;8.204;2024-03-06T01:54:38;102105.44;;;8.50;100.00
49216;BME280;45943;53.148;8.204;2024-03-06T01:57:05;102113.38;;;8.34;100.00
49216;BME280;45943;53.148;8.204;2024-03-06T01:59:33;102105.00;;;8.23;100.00
49216;BME280;45943;53.148;8.204;2024-03-06T02:01:59;102109.81;;;8.17;100.00
49216;BME280;45943;53.148;8.204;2024-03-06T02:04:27;102103.84;;;8.29;100.00
49216;BME280;45943;53.148;8.204;2024-03-06T02:06:53;102106.97;;;8.20;100.00
49216;BME280;45943;53.148;8.204;2024-03-06T02:09:20;102102.81;;;8.31;100.00
49216;BME280;45943;53.148;8.204;2024-03-06T02:11:46;102102.22;;;8.44;100.00
49216;BME280;45943;53.148;8.204;2024-03-06T02:14:12;102105.44;;;8.50;100.00
49216;BME280;45943;53.148;8.204;2024-03-06T02:16:38;102106.00;;;8.40;100.00
49216;BME280;45943;53.148;8.204;2024-03-06T02:19:07;102099.06;;;8.53;100.00
49216;BME280;45943;53.148;8.204;2024-03-06T02:21:34;102104.66;;;8.48;100.00
49216;BME280;45943;53.148;8.204;2024-03-06T02:24:00;102101.44;;;8.42;100.00
49216;BME280;45943;53.148;8.204;2024-03-06T02:26:26;102100.88;;;8.35;100.00
49216;BME280;45943;53.148;8.204;2024-03-06T02:28:53;102097.28;;;8.36;100.00
49216;BME280;45943;53.148;8.204;2024-03-06T02:31:20;102099.31;;;8.48;100.00
49216;BME280;45943;53.148;8.204;2024-03-06T02:33:47;102097.13;;;8.56;100.00
49216;BME280;45943;53.148;8.204;2024-03-06T02:36:14;102099.53;;;8.61;100.00
49216;BME280;45943;53.148;8.204;2024-03-06T02:38:42;102104.66;;;8.66;100.00
49216;BME280;45943;53.148;8.204;2024-03-06T02:41:09;102097.34;;;8.69;100.00
49216;BME280;45943;53.148;8.204;2024-03-06T02:43:37;102100.41;;;8.61;100.00
49216;BME280;45943;53.148;8.204;2024-03-06T02:46:03;102088.53;;;8.67;100.00
49216;BME280;45943;53.148;8.204;2024-03-06T02:48:30;102097.50;;;8.66;100.00
49216;BME280;45943;53.148;8.204;2024-03-06T02:50:56;102101.75;;;8.53;100.00
49216;BME280;45943;53.148;8.204;2024-03-06T02:53:22;102100.78;;;8.54;100.00
49216;BME280;45943;53.148;8.204;2024-03-06T02:55:49;102103.09;;;8.44;100.00
49216;BME280;45943;53.148;8.204;2024-03-06T02:58:15;102111.75;;;8.49;100.00
49216;BME280;45943;53.148;8.204;2024-03-06T03:00:44;102110.31;;;8.42;100.00
49216;BME280;45943;53.148;8.204;2024-03-06T03:03:10;102114.19;;;8.37;100.00
49216;BME280;45943;53.148;8.204;2024-03-06T03:05:40;102117.13;;;8.30;100.00
49216;BME280;45943;53.148;8.204;2024-03-06T03:08:06;102112.94;;;8.25;100.00
49216;BME280;45943;53.148;8.204;2024-03-06T03:10:32;102111.91;;;8.46;100.00
49216;BME280;45943;53.148;8.204;2024-03-06T03:13:00;102115.38;;;8.48;100.00
49216;BME280;45943;53.148;8.204;2024-03-06T03:15:26;102118.44;;;8.41;100.00
49216;BME280;45943;53.148;8.204;2024-03-06T03:17:52;102124.56;;;8.43;100.00
49216;BME280;45943;53.148;8.204;2024-03-06T03:20:18;102114.47;;;8.30;100.00
49216;BME280;45943;53.148;8.204;2024-03-06T03:22:44;102115.25;;;8.32;100.00
49216;BME280;45943;53.148;8.204;2024-03-06T03:25:10;102122.06;;;8.40;100.00
49216;BME280;45943;53.148;8.204;2024-03-06T03:27:38;102126.53;;;8.39;100.00
49216;BME280;45943;53.148;8.204;2024-03-06T03:30:09;102126.63;;;8.38;100.00
49216;BME280;45943;53.148;8.204;2024-03-06T03:32:36;102130.53;;;8.48;100.00
49216;BME280;45943;53.148;8.204;2024-03-06T03:35:06;102133.84;;;8.53;100.00
49216;BME280;45943;53.148;8.204;2024-03-06T03:37:33;102138.97;;;8.57;100.00
49216;BME280;45943;53.148;8.204;2024-03-06T03:39:59;102132.41;;;8.63;100.00
49216;BME280;45943;53.148;8.204;2024-03-06T03:42:25;102139.34;;;8.67;100.00
49216;BME280;45943;53.148;8.204;2024-03-06T03:44:51;102137.53;;;8.50;100.00
49216;BME280;45943;53.148;8.204;2024-03-06T03:47:17;102145.31;;;8.55;100.00
49216;BME280;45943;53.148;8.204;2024-03-06T03:49:43;102142.41;;;8.59;100.00
49216;BME280;45943;53.148;8.204;2024-03-06T03:52:09;102135.91;;;8.48;100.00
49216;BME280;45943;53.148;8.204;2024-03-06T03:54:35;102138.09;;;8.40;100.00
49216;BME280;45943;53.148;8.204;2024-03-06T03:57:01;102144.88;;;8.28;100.00
49216;BME280;45943;53.148;8.204;2024-03-06T03:59:27;102152.53;;;8.36;100.00
49216;BME280;45943;53.148;8.204;2024-03-06T04:01:53;102152.16;;;8.43;100.00
49216;BME280;45943;53.148;8.204;2024-03-06T04:04:19;102153.50;;;8.52;100.00
49216;BME280;45943;53.148;8.204;2024-03-06T04:06:45;102153.59;;;8.50;100.00
49216;BME280;45943;53.148;8.204;2024-03-06T04:09:11;102151.84;;;8.49;100.00
49216;BME280;45943;53.148;8.204;2024-03-06T04:11:37;102166.97;;;8.50;100.00
49216;BME280;45943;53.148;8.204;2024-03-06T04:14:04;102159.09;;;8.47;100.00
49216;BME280;45943;53.148;8.204;2024-03-06T04:16:32;102158.25;;;8.47;100.00
49216;BME280;45943;53.148;8.204;2024-03-06T04:18:58;102159.50;;;8.57;100.00
49216;BME280;45943;53.148;8.204;2024-03-06T04:21:24;102163.91;;;8.58;100.00
49216;BME280;45943;53.148;8.204;2024-03-06T04:23:50;102172.00;;;8.56;100.00
49216;BME280;45943;53.148;8.204;2024-03-06T04:26:16;102162.31;;;8.54;100.00
49216;BME280;45943;53.148;8.204;2024-03-06T04:28:43;102160.56;;;8.53;100.00
49216;BME280;45943;53.148;8.204;2024-03-06T04:31:09;102161.22;;;8.41;100.00
49216;BME280;45943;53.148;8.204;2024-03-06T04:33:36;102160.56;;;8.36;100.00
49216;BME280;45943;53.148;8.204;2024-03-06T04:36:02;102161.50;;;8.34;100.00
49216;BME280;45943;53.148;8.204;2024-03-06T04:38:31;102161.94;;;8.25;100.00
49216;BME280;45943;53.148;8.204;2024-03-06T04:40:57;102158.63;;;8.20;100.00
49216;BME280;45943;53.148;8.204;2024-03-06T04:43:24;102172.31;;;8.31;100.00
49216;BME280;45943;53.148;8.204;2024-03-06T04:45:50;102166.19;;;8.29;100.00
49216;BME280;45943;53.148;8.204;2024-03-06T04:48:16;102178.81;;;8.09;100.00
49216;BME280;45943;53.148;8.204;2024-03-06T04:50:42;102187.75;;;8.26;100.00
49216;BME280;45943;53.148;8.204;2024-03-06T04:53:08;102194.16;;;8.22;100.00
49216;BME280;45943;53.148;8.204;2024-03-06T04:55:34;102182.41;;;8.26;100.00
49216;BME280;45943;53.148;8.204;2024-03-06T04:58:02;102182.53;;;8.23;100.00
49216;BME280;45943;53.148;8.204;2024-03-06T05:00:29;102186.50;;;8.15;100.00
49216;BME280;45943;53.148;8.204;2024-03-06T05:02:55;102187.38;;;8.15;100.00
49216;BME280;45943;53.148;8.204;2024-03-06T05:05:21;102185.44;;;8.19;100.00
49216;BME280;45943;53.148;8.204;2024-03-06T05:07:48;102197.78;;;8.21;100.00
49216;BME280;45943;53.148;8.204;2024-03-06T05:10:14;102198.72;;;8.20;100.00
49216;BME280;45943;53.148;8.204;2024-03-06T05:12:44;102197.72;;;8.04;100.00
49216;BME280;45943;53.148;8.204;2024-03-06T05:15:10;102214.50;;;7.89;100.00
49216;BME280;45943;53.148;8.204;2024-03-06T05:17:36;102210.16;;;8.05;100.00
49216;BME280;45943;53.148;8.204;2024-03-06T05:20:02;102204.75;;;8.07;100.00
49216;BME280;45943;53.148;8.204;2024-03-06T05:22:31;102212.38;;;8.14;100.00
49216;BME280;45943;53.148;8.204;2024-03-06T05:24:57;102219.88;;;8.06;100.00
49216;BME280;45943;53.148;8.204;2024-03-06T05:27:24;102217.59;;;8.17;100.00
49216;BME280;45943;53.148;8.204;2024-03-06T05:29:50;102209.78;;;8.13;100.00
49216;BME280;45943;53.148;8.204;2024-03-06T05:32:16;102221.84;;;8.02;100.00
49216;BME280;45943;53.148;8.204;2024-03-06T05:34:42;102227.19;;;8.02;100.00
49216;BME280;45943;53.148;8.204;2024-03-06T05:37:09;102230.31;;;7.93;100.00
49216;BME280;45943;53.148;8.204;2024-03-06T05:39:35;102234.16;;;8.07;100.00
49216;BME280;45943;53.148;8.204;2024-03-06T05:42:02;102233.91;;;8.11;100.00
49216;BME280;45943;53.148;8.204;2024-03-06T05:44:30;102244.97;;;8.03;100.00
49216;BME280;45943;53.148;8.204;2024-03-06T05:47:01;102253.56;;;8.10;100.00
49216;BME280;45943;53.148;8.204;2024-03-06T05:49:28;102260.22;;;8.01;100.00
49216;BME280;45943;53.148;8.204;2024-03-06T05:51:54;102259.94;;;8.08;100.00
49216;BME280;45943;53.148;8.204;2024-03-06T05:54:21;102260.47;;;7.95;100.00
49216;BME280;45943;53.148;8.204;2024-03-06T05:56:48;102266.66;;;7.97;100.00
49216;BME280;45943;53.148;8.204;2024-03-06T05:59:17;102268.22;;;7.83;100.00
49216;BME280;45943;53.148;8.204;2024-03-06T06:01:44;102264.97;;;7.95;100.00
49216;BME280;45943;53.148;8.204;2024-03-06T06:04:12;102272.94;;;7.96;100.00
49216;BME280;45943;53.148;8.204;2024-03-06T06:06:39;102275.31;;;8.02;100.00
49216;BME280;45943;53.148;8.204;2024-03-06T06:09:06;102276.59;;;8.13;100.00
49216;BME280;45943;53.148;8.204;2024-03-06T06:11:32;102282.19;;;8.08;100.00
49216;BME280;45943;53.148;8.204;2024-03-06T06:13:59;102280.72;;;8.01;100.00
49216;BME280;45943;53.148;8.204;2024-03-06T06:16:25;102283.63;;;7.96;100.00
49216;BME280;45943;53.148;8.204;2024-03-06T06:18:51;102288.16;;;7.94;100.00
49216;BME280;45943;53.148;8.204;2024-03-06T06:21:18;102283.28;;;7.65;100.00
49216;BME280;45943;53.148;8.204;2024-03-06T06:23:44;102291.25;;;7.85;100.00
49216;BME280;45943;53.148;8.204;2024-03-06T06:26:10;102296.13;;;7.75;100.00
49216;BME280;45943;53.148;8.204;2024-03-06T06:28:36;102304.91;;;7.79;100.00
49216;BME280;45943;53.148;8.204;2024-03-06T06:31:03;102304.75;;;7.82;100.00
49216;BME280;45943;53.148;8.204;2024-03-06T06:33:30;102305.63;;;7.83;100.00
49216;BME280;45943;53.148;8.204;2024-03-06T06:35:56;102311.91;;;7.82;100.00
49216;BME280;45943;53.148;8.204;2024-03-06T06:38:22;102304.63;;;8.04;100.00
49216;BME280;45943;53.148;8.204;2024-03-06T06:40:48;102316.81;;;7.91;100.00
49216;BME280;45943;53.148;8.204;2024-03-06T06:43:14;102315.31;;;8.04;100.00
49216;BME280;45943;53.148;8.204;2024-03-06T06:45:41;102315.97;;;8.09;100.00
49216;BME280;45943;53.148;8.204;2024-03-06T06:48:07;102320.16;;;8.15;100.00
49216;BME280;45943;53.148;8.204;2024-03-06T06:50:35;102316.09;;;8.06;100.00
49216;BME280;45943;53.148;8.204;2024-03-06T06:53:01;102324.72;;;8.13;100.00
49216;BME280;45943;53.148;8.204;2024-03-06T06:55:27;102322.63;;;8.19;100.00
49216;BME280;45943;53.148;8.204;2024-03-06T06:57:53;102330.94;;;8.32;100.00
49216;BME280;45943;53.148;8.204;2024-03-06T07:00:19;102321.97;;;8.14;100.00
49216;BME280;45943;53.148;8.204;2024-03-06T07:02:47;102319.44;;;8.11;100.00
49216;BME280;45943;53.148;8.204;2024-03-06T07:05:13;102323.41;;;8.21;100.00
49216;BME280;45943;53.148;8.204;2024-03-06T07:07:39;102326.69;;;8.28;100.00
49216;BME280;45943;53.148;8.204;2024-03-06T07:10:06;102325.88;;;8.26;100.00
49216;BME280;45943;53.148;8.204;2024-03-06T07:12:32;102333.41;;;8.18;100.00
49216;BME280;45943;53.148;8.204;2024-03-06T07:14:58;102332.44;;;8.19;100.00
49216;BME280;45943;53.148;8.204;2024-03-06T07:17:25;102336.19;;;8.15;100.00
49216;BME280;45943;53.148;8.204;2024-03-06T07:19:51;102343.66;;;8.27;100.00
49216;BME280;45943;53.148;8.204;2024-03-06T07:22:21;102345.91;;;8.17;100.00
49216;BME280;45943;53.148;8.204;2024-03-06T07:24:47;102355.28;;;8.26;100.00
49216;BME280;45943;53.148;8.204;2024-03-06T07:27:14;102343.84;;;8.03;100.00
49216;BME280;45943;53.148;8.204;2024-03-06T07:29:40;102355.63;;;8.18;100.00
49216;BME280;45943;53.148;8.204;2024-03-06T07:32:06;102352.97;;;8.18;100.00
49216;BME280;45943;53.148;8.204;2024-03-06T07:34:32;102356.59;;;8.17;100.00
49216;BME280;45943;53.148;8.204;2024-03-06T07:36:59;102368.25;;;8.15;100.00
49216;BME280;45943;53.148;8.204;2024-03-06T07:39:25;102372.81;;;8.13;100.00
49216;BME280;45943;53.148;8.204;2024-03-06T07:41:52;102376.81;;;8.23;100.00
49216;BME280;45943;53.148;8.204;2024-03-06T07:44:18;102380.41;;;8.22;100.00
49216;BME280;45943;53.148;8.204;2024-03-06T07:46:45;102380.34;;;8.23;100.00
49216;BME280;45943;53.148;8.204;2024-03-06T07:49:12;102382.16;;;8.23;100.00
49216;BME280;45943;53.148;8.204;2024-03-06T07:51:38;102387.19;;;8.10;100.00
49216;BME280;45943;53.148;8.204;2024-03-06T07:54:06;102389.19;;;8.05;100.00
49216;BME280;45943;53.148;8.204;2024-03-06T07:56:33;102392.38;;;8.13;100.00
49216;BME280;45943;53.148;8.204;2024-03-06T07:59:00;102395.00;;;8.15;100.00
49216;BME280;45943;53.148;8.204;2024-03-06T08:01:26;102393.59;;;8.06;100.00
49216;BME280;45943;53.148;8.204;2024-03-06T08:03:54;102402.38;;;8.10;100.00
49216;BME280;45943;53.148;8.204;2024-03-06T08:06:20;102403.19;;;7.91;100.00
49216;BME280;45943;53.148;8.204;2024-03-06T08:08:46;102404.19;;;7.89;100.00
49216;BME280;45943;53.148;8.204;2024-03-06T08:11:13;102409.13;;;7.98;100.00
49216;BME280;45943;53.148;8.204;2024-03-06T08:13:39;102413.53;;;7.99;100.00
49216;BME280;45943;53.148;8.204;2024-03-06T08:16:06;102410.50;;;8.27;100.00
49216;BME280;45943;53.148;8.204;2024-03-06T08:18:33;102414.50;;;8.37;100.00
49216;BME280;45943;53.148;8.204;2024-03-06T08:21:00;102423.69;;;8.50;100.00
49216;BME280;45943;53.148;8.204;2024-03-06T08:23:27;102435.31;;;8.49;100.00
49216;BME280;45943;53.148;8.204;2024-03-06T08:25:53;102425.22;;;8.56;100.00
49216;BME280;45943;53.148;8.204;2024-03-06T08:28:19;102427.50;;;8.45;100.00
49216;BME280;45943;53.148;8.204;2024-03-06T08:30:45;102435.91;;;8.56;100.00
49216;BME280;45943;53.148;8.204;2024-03-06T08:33:11;102439.38;;;8.77;100.00
49216;BME280;45943;53.148;8.204;2024-03-06T08:35:37;102438.13;;;8.84;100.00
49216;BME280;45943;53.148;8.204;2024-03-06T08:38:04;102440.44;;;8.91;100.00
49216;BME280;45943;53.148;8.204;2024-03-06T08:40:30;102438.09;;;8.85;100.00
49216;BME280;45943;53.148;8.204;2024-03-06T08:42:56;102441.47;;;8.89;100.00
49216;BME280;45943;53.148;8.204;2024-03-06T08:45:22;102440.38;;;8.93;100.00
49216;BME280;45943;53.148;8.204;2024-03-06T08:47:48;102447.75;;;9.07;100.00
49216;BME280;45943;53.148;8.204;2024-03-06T08:50:15;102447.53;;;8.93;100.00
49216;BME280;45943;53.148;8.204;2024-03-06T08:52:41;102451.94;;;8.94;100.00
49216;BME280;45943;53.148;8.204;2024-03-06T08:55:08;102442.59;;;9.02;100.00
49216;BME280;45943;53.148;8.204;2024-03-06T08:57:35;102457.28;;;9.12;100.00
49216;BME280;45943;53.148;8.204;2024-03-06T09:00:02;102455.78;;;9.07;100.00
49216;BME280;45943;53.148;8.204;2024-03-06T09:02:29;102463.50;;;9.13;100.00
49216;BME280;45943;53.148;8.204;2024-03-06T09:04:55;102467.34;;;9.07;100.00
49216;BME280;45943;53.148;8.204;2024-03-06T09:07:21;102465.19;;;9.15;100.00
49216;BME280;45943;53.148;8.204;2024-03-06T09:09:50;102470.25;;;9.03;100.00
49216;BME280;45943;53.148;8.204;2024-03-06T09:12:17;102470.13;;;9.06;100.00
49216;BME280;45943;53.148;8.204;2024-03-06T09:14:43;102474.72;;;9.21;100.00
49216;BME280;45943;53.148;8.204;2024-03-06T09:17:10;102471.31;;;9.17;100.00
49216;BME280;45943;53.148;8.204;2024-03-06T09:19:40;102468.75;;;9.33;100.00
49216;BME280;45943;53.148;8.204;2024-03-06T09:22:07;102472.47;;;9.12;100.00
49216;BME280;45943;53.148;8.204;2024-03-06T09:24:33;102471.22;;;9.38;100.00
49216;BME280;45943;53.148;8.204;2024-03-06T09:27:01;102480.41;;;9.32;100.00
49216;BME280;45943;53.148;8.204;2024-03-06T09:29:27;102471.66;;;9.29;100.00
49216;BME280;45943;53.148;8.204;2024-03-06T09:31:53;102478.41;;;9.18;100.00
49216;BME280;45943;53.148;8.204;2024-03-06T09:34:19;102480.69;;;9.45;100.00
49216;BME280;45943;53.148;8.204;2024-03-06T09:36:47;102477.31;;;9.59;100.00
49216;BME280;45943;53.148;8.204;2024-03-06T09:39:15;102473.50;;;9.63;100.00
49216;BME280;45943;53.148;8.204;2024-03-06T09:41:43;102481.41;;;9.66;100.00
49216;BME280;45943;53.148;8.204;2024-03-06T09:44:10;102494.44;;;9.73;100.00
49216;BME280;45943;53.148;8.204;2024-03-06T09:46:36;102491.09;;;9.68;100.00
49216;BME280;45943;53.148;8.204;2024-03-06T09:49:02;102493.50;;;9.38;100.00
49216;BME280;45943;53.148;8.204;2024-03-06T09:51:29;102498.16;;;9.52;100.00
49216;BME280;45943;53.148;8.204;2024-03-06T09:53:56;102495.66;;;9.49;100.00
49216;BME280;45943;53.148;8.204;2024-03-06T09:56:22;102493.47;;;9.57;100.00
49216;BME280;45943;53.148;8.204;2024-03-06T09:58:48;102497.44;;;9.85;100.00
49216;BME280;45943;53.148;8.204;2024-03-06T10:01:14;102503.59;;;9.87;100.00
49216;BME280;45943;53.148;8.204;2024-03-06T10:03:40;102500.44;;;9.96;100.00
49216;BME280;45943;53.148;8.204;2024-03-06T10:06:06;102507.81;;;9.91;100.00
49216;BME280;45943;53.148;8.204;2024-03-06T10:08:33;102508.84;;;9.71;100.00
49216;BME280;45943;53.148;8.204;2024-03-06T10:11:00;102502.72;;;9.86;100.00
49216;BME280;45943;53.148;8.204;2024-03-06T10:13:26;102510.13;;;9.98;100.00
49216;BME280;45943;53.148;8.204;2024-03-06T10:18:28;102518.56;;;10.08;100.00
49216;BME280;45943;53.148;8.204;2024-03-06T10:20:56;102515.88;;;9.91;100.00
49216;BME280;45943;53.148;8.204;2024-03-06T10:23:23;102513.44;;;10.03;100.00
49216;BME280;45943;53.148;8.204;2024-03-06T10:25:49;102525.78;;;10.25;100.00
49216;BME280;45943;53.148;8.204;2024-03-06T10:28:16;102514.28;;;10.21;100.00
49216;BME280;45943;53.148;8.204;2024-03-06T10:30:43;102514.56;;;10.34;100.00
49216;BME280;45943;53.148;8.204;2024-03-06T10:33:10;102514.13;;;10.42;100.00
49216;BME280;45943;53.148;8.204;2024-03-06T10:35:39;102515.47;;;10.50;99.26
49216;BME280;45943;53.148;8.204;2024-03-06T10:38:06;102518.88;;;10.70;97.53
49216;BME280;45943;53.148;8.204;2024-03-06T10:40:34;102526.09;;;10.52;95.92
49216;BME280;45943;53.148;8.204;2024-03-06T10:43:02;102521.63;;;10.52;98.63
49216;BME280;45943;53.148;8.204;2024-03-06T10:48:00;102528.06;;;10.66;98.89
49216;BME280;45943;53.148;8.204;2024-03-06T10:50:27;102529.66;;;10.85;95.55
49216;BME280;45943;53.148;8.204;2024-03-06T10:52:54;102530.72;;;10.99;95.46
49216;BME280;45943;53.148;8.204;2024-03-06T10:55:22;102537.22;;;11.10;94.07
49216;BME280;45943;53.148;8.204;2024-03-06T10:57:49;102534.97;;;11.18;92.83
49216;BME280;45943;53.148;8.204;2024-03-06T11:00:18;102535.94;;;11.17;92.16
49216;BME280;45943;53.148;8.204;2024-03-06T11:02:48;102530.13;;;11.25;91.58
49216;BME280;45943;53.148;8.204;2024-03-06T11:05:17;102536.38;;;11.41;93.64
49216;BME280;45943;53.148;8.204;2024-03-06T11:07:43;102532.63;;;11.60;89.75
49216;BME280;45943;53.148;8.204;2024-03-06T11:10:09;102532.47;;;11.47;85.29
49216;BME280;45943;53.148;8.204;2024-03-06T11:12:42;102534.09;;;11.49;88.72
49216;BME280;45943;53.148;8.204;2024-03-06T11:15:14;102539.03;;;11.73;87.94
49216;BME280;45943;53.148;8.204;2024-03-06T11:17:42;102536.06;;;11.93;85.96
49216;BME280;45943;53.148;8.204;2024-03-06T11:20:12;102532.84;;;12.02;84.44
49216;BME280;45943;53.148;8.204;2024-03-06T11:28:22;102539.94;;;12.03;80.70
49216;BME280;45943;53.148;8.204;2024-03-06T11:36:19;102537.19;;;11.89;83.71
49216;BME280;45943;53.148;8.204;2024-03-06T11:41:23;102540.38;;;11.96;82.29
49216;BME280;45943;53.148;8.204;2024-03-06T11:43:50;102539.16;;;12.01;82.72
49216;BME280;45943;53.148;8.204;2024-03-06T11:46:19;102540.38;;;11.96;83.50
49216;BME280;45943;53.148;8.204;2024-03-06T11:48:53;102541.53;;;11.92;81.14
49216;BME280;45943;53.148;8.204;2024-03-06T11:51:20;102540.44;;;11.80;84.07
49216;BME280;45943;53.148;8.204;2024-03-06T11:53:49;102543.44;;;11.74;85.06
49216;BME280;45943;53.148;8.204;2024-03-06T11:56:16;102550.22;;;11.65;88.25
49216;BME280;45943;53.148;8.204;2024-03-06T11:58:43;102549.19;;;11.84;84.82
49216;BME280;45943;53.148;8.204;2024-03-06T12:01:09;102545.00;;;11.94;83.96
49216;BME280;45943;53.148;8.204;2024-03-06T12:03:35;102549.84;;;12.03;83.22
49216;BME280;45943;53.148;8.204;2024-03-06T12:06:01;102551.88;;;12.14;81.90
49216;BME280;45943;53.148;8.204;2024-03-06T12:08:28;102546.69;;;12.11;81.02
49216;BME280;45943;53.148;8.204;2024-03-06T12:10:54;102548.44;;;12.26;81.86
49216;BME280;45943;53.148;8.204;2024-03-06T12:13:24;102542.81;;;12.45;79.21
49216;BME280;45943;53.148;8.204;2024-03-06T12:15:50;102546.41;;;12.74;78.44
49216;BME280;45943;53.148;8.204;2024-03-06T12:18:17;102543.72;;;12.59;76.57
49216;BME280;45943;53.148;8.204;2024-03-06T12:20:44;102542.44;;;12.93;75.60
49216;BME280;45943;53.148;8.204;2024-03-06T12:23:21;102544.59;;;12.88;72.20
49216;BME280;45943;53.148;8.204;2024-03-06T12:26:04;102538.22;;;12.61;72.75
49216;BME280;45943;53.148;8.204;2024-03-06T12:28:31;102535.34;;;12.64;74.84
49216;BME280;45943;53.148;8.204;2024-03-06T12:30:57;102544.56;;;13.03;74.46
49216;BME280;45943;53.148;8.204;2024-03-06T12:33:26;102538.78;;;13.37;73.25
49216;BME280;45943;53.148;8.204;2024-03-06T12:36:05;102546.09;;;13.89;69.76
49216;BME280;45943;53.148;8.204;2024-03-06T12:38:36;102537.97;;;14.29;67.58
49216;BME280;45943;53.148;8.204;2024-03-06T12:41:03;102542.28;;;14.31;67.23
49216;BME280;45943;53.148;8.204;2024-03-06T12:43:30;102537.22;;;14.27;65.92
49216;BME280;45943;53.148;8.204;2024-03-06T12:45:56;102536.72;;;14.47;65.06
49216;BME280;45943;53.148;8.204;2024-03-06T12:48:23;102533.16;;;14.47;64.58
49216;BME280;45943;53.148;8.204;2024-03-06T12:50:51;102537.59;;;14.60;63.46
49216;BME280;45943;53.148;8.204;2024-03-06T12:53:18;102531.94;;;14.89;62.25
49216;BME280;45943;53.148;8.204;2024-03-06T12:55:44;102539.88;;;14.67;61.37
49216;BME280;45943;53.148;8.204;2024-03-06T12:58:11;102535.22;;;14.56;60.70
49216;BME280;45943;53.148;8.204;2024-03-06T13:00:38;102535.44;;;14.78;60.27
49216;BME280;45943;53.148;8.204;2024-03-06T13:03:04;102531.09;;;14.50;60.26
49216;BME280;45943;53.148;8.204;2024-03-06T13:05:31;102539.19;;;14.63;60.90
49216;BME280;45943;53.148;8.204;2024-03-06T13:07:57;102539.72;;;14.81;60.25